Time;durP1;ratioP1;P1;durP2;ratioP2;P2;SDS_P1;SDS_P2;PMS_P1;PMS_P2;Temp;Humidity;BMP_temperature;BMP_pressure;BME280_temperature;BME280_humidity;BME280_pressure;Samples;Min_cycle;Max_cycle;Signal;HPM_P1;HPM_P2
2021/03/09 00:01:30;;;;;;;8.82;3.88;;;-2.30;99.90;;;;;;4999749;28;20045;-61
2021/03/09 00:03:56;;;;;;;8.00;3.20;;;-2.40;99.90;;;;;;5000883;28;20753;-61
2021/03/09 00:06:22;;;;;;;8.07;2.92;;;-2.40;99.90;;;;;;4998070;28;20133;-60
2021/03/09 00:08:48;;;;;;;7.18;3.20;;;-2.40;99.90;;;;;;4999565;28;20034;-61
2021/03/09 00:11:14;;;;;;;7.65;3.05;;;-2.40;99.90;;;;;;4999836;28;20466;-61
2021/03/09 00:13:39;;;;;;;6.85;2.60;;;-2.40;99.90;;;;;;5000418;28;20041;-61
2021/03/09 00:16:05;;;;;;;8.60;3.85;;;-2.50;99.90;;;;;;5000092;28;20066;-61
2021/03/09 00:18:31;;;;;;;7.05;3.13;;;-2.50;99.90;;;;;;4999712;28;20052;-61
2021/03/09 00:20:57;;;;;;;7.97;2.90;;;-2.50;99.90;;;;;;5000764;28;20037;-61
2021/03/09 00:23:23;;;;;;;13.43;3.00;;;-2.50;99.90;;;;;;4999085;28;20366;-61
2021/03/09 00:25:49;;;;;;;7.55;2.90;;;-2.50;99.90;;;;;;5000060;28;20791;-61
2021/03/09 00:28:20;;;;;;;7.68;3.05;;;-2.50;99.90;;;;;;4998582;28;20525;-61
2021/03/09 00:30:46;;;;;;;9.60;2.92;;;-2.60;99.90;;;;;;4999871;28;20030;-61
2021/03/09 00:33:12;;;;;;;4.75;2.80;;;-2.60;99.90;;;;;;5000014;28;20022;-61
2021/03/09 00:35:38;;;;;;;7.93;3.25;;;-2.70;99.90;;;;;;4999369;28;20095;-61
2021/03/09 00:38:04;;;;;;;8.88;3.20;;;-2.60;99.90;;;;;;4999588;28;20063;-61
2021/03/09 00:40:30;;;;;;;6.03;2.88;;;-2.80;99.90;;;;;;4999300;28;20092;-61
2021/03/09 00:42:55;;;;;;;7.50;3.10;;;-2.80;99.90;;;;;;4999664;28;20068;-61
2021/03/09 00:45:21;;;;;;;7.53;3.40;;;-2.80;99.90;;;;;;4999546;28;20137;-61
2021/03/09 00:47:47;;;;;;;5.97;2.80;;;-2.90;99.90;;;;;;5000048;28;20034;-61
2021/03/09 00:50:13;;;;;;;10.70;3.25;;;-3.00;99.90;;;;;;4999385;28;20070;-61
2021/03/09 00:52:40;;;;;;;7.85;3.20;;;-2.90;99.90;;;;;;4998836;28;20026;-61
2021/03/09 00:55:06;;;;;;;5.75;2.60;;;-2.90;99.90;;;;;;4999837;28;20397;-61
2021/03/09 00:57:32;;;;;;;9.13;3.75;;;-3.00;99.90;;;;;;4999575;28;20120;-61
2021/03/09 00:59:58;;;;;;;11.57;3.90;;;-2.90;99.90;;;;;;4999516;28;20041;-61
2021/03/09 01:02:23;;;;;;;3.67;2.17;;;-2.90;99.90;;;;;;4999459;28;20034;-61
2021/03/09 01:04:49;;;;;;;4.95;2.45;;;-2.90;99.90;;;;;;4998848;28;20148;-61
2021/03/09 01:07:15;;;;;;;9.95;3.25;;;-2.90;99.90;;;;;;4999988;28;20030;-61
2021/03/09 01:09:41;;;;;;;7.43;3.33;;;-2.90;99.90;;;;;;5002162;28;20034;-61
2021/03/09 01:12:07;;;;;;;5.68;2.65;;;-3.00;99.90;;;;;;5002712;28;20084;-61
2021/03/09 01:14:33;;;;;;;5.80;2.75;;;-3.10;99.90;;;;;;5000077;28;20083;-61
2021/03/09 01:16:59;;;;;;;7.72;3.33;;;-3.10;99.90;;;;;;5001226;28;20037;-61
2021/03/09 01:19:24;;;;;;;9.45;2.97;;;-3.20;99.90;;;;;;5003344;28;20064;-61
2021/03/09 01:21:50;;;;;;;6.40;2.85;;;-3.30;99.90;;;;;;5003864;28;20041;-61
2021/03/09 01:24:16;;;;;;;6.53;2.85;;;-3.30;99.90;;;;;;5002457;28;20083;-61
2021/03/09 01:26:42;;;;;;;7.10;2.95;;;-3.30;99.90;;;;;;5002308;28;20305;-61
2021/03/09 01:29:08;;;;;;;7.88;3.15;;;-3.30;99.90;;;;;;5002613;28;20080;-61
2021/03/09 01:31:33;;;;;;;5.82;2.78;;;-3.40;99.90;;;;;;5003766;28;20034;-61
2021/03/09 01:33:59;;;;;;;9.27;2.90;;;-3.40;99.90;;;;;;5003034;28;20767;-61
2021/03/09 01:36:25;;;;;;;9.05;3.05;;;-3.40;99.90;;;;;;5002308;28;20026;-61
2021/03/09 01:38:51;;;;;;;8.25;2.90;;;-3.30;99.90;;;;;;5002602;28;20120;-61
2021/03/09 01:41:17;;;;;;;7.05;3.75;;;-3.30;99.90;;;;;;5002617;28;20046;-61
2021/03/09 01:43:42;;;;;;;7.43;2.67;;;-3.30;99.90;;;;;;5002067;28;20057;-61
2021/03/09 01:46:08;;;;;;;4.95;2.40;;;-3.30;99.90;;;;;;5003319;28;20229;-61
2021/03/09 01:48:43;;;;;;;7.00;3.33;;;-3.40;99.90;;;;;;5003219;28;20030;-61
2021/03/09 01:51:09;;;;;;;6.03;2.78;;;-3.40;99.90;;;;;;5001446;28;20025;-61
2021/03/09 01:53:35;;;;;;;7.13;2.65;;;-3.50;99.90;;;;;;5001970;28;20038;-62
2021/03/09 01:56:01;;;;;;;7.30;2.65;;;-3.50;99.90;;;;;;5002521;28;20052;-61
2021/03/09 01:58:30;;;;;;;6.80;3.05;;;-3.50;99.90;;;;;;5000979;28;20129;-61
2021/03/09 02:00:56;;;;;;;7.80;3.13;;;-3.50;99.90;;;;;;5008116;28;20038;-61
2021/03/09 02:03:22;;;;;;;8.43;3.05;;;-3.50;99.90;;;;;;5002748;28;20053;-61
2021/03/09 02:05:48;;;;;;;6.88;3.20;;;-3.50;99.90;;;;;;5002208;28;20724;-61
2021/03/09 02:08:14;;;;;;;10.13;3.40;;;-3.50;99.90;;;;;;5002769;28;20025;-61
2021/03/09 02:10:40;;;;;;;7.05;2.53;;;-3.60;99.90;;;;;;5001443;28;20047;-61
2021/03/09 02:13:40;;;;;;;6.45;2.72;;;-3.60;99.90;;;;;;5001127;28;20038;-61
2021/03/09 02:16:25;;;;;;;7.60;2.53;;;-3.60;99.90;;;;;;5001948;28;20033;-61
2021/03/09 02:18:56;;;;;;;5.75;2.45;;;-3.60;99.90;;;;;;5002032;28;20081;-61
2021/03/09 02:21:28;;;;;;;6.53;2.40;;;-3.70;99.90;;;;;;5000541;28;20046;-61
2021/03/09 02:24:19;;;;;;;6.30;2.70;;;-3.70;99.90;;;;;;5000659;28;20041;-61
2021/03/09 02:26:50;;;;;;;6.68;2.65;;;-3.70;99.90;;;;;;5003185;28;20033;-61
2021/03/09 02:29:35;;;;;;;5.72;2.63;;;-3.70;99.90;;;;;;4998755;28;21193;-61
2021/03/09 02:32:02;;;;;;;6.97;3.10;;;-3.70;99.90;;;;;;5001058;28;20143;-61
2021/03/09 02:34:53;;;;;;;7.57;3.38;;;-3.80;99.90;;;;;;5001842;28;20485;-61
2021/03/09 02:37:21;;;;;;;5.63;2.92;;;-3.80;99.90;;;;;;5002333;28;20075;-61
2021/03/09 02:39:48;;;;;;;5.85;2.80;;;-3.80;99.90;;;;;;5002470;28;20032;-61
2021/03/09 02:42:22;;;;;;;5.00;3.03;;;-3.90;99.90;;;;;;5001329;28;20038;-61
2021/03/09 02:44:52;;;;;;;8.40;2.70;;;-4.00;99.90;;;;;;5001138;28;20107;-61
2021/03/09 02:47:19;;;;;;;9.30;3.28;;;-4.00;99.90;;;;;;5001177;28;20490;-61
2021/03/09 02:49:46;;;;;;;7.95;2.97;;;-3.90;99.90;;;;;;5003200;28;20056;-61
2021/03/09 02:52:18;;;;;;;6.53;2.83;;;-3.90;99.90;;;;;;5002727;28;20033;-61
2021/03/09 02:54:45;;;;;;;6.68;3.13;;;-4.00;99.90;;;;;;5001010;28;20121;-61
2021/03/09 02:57:13;;;;;;;6.28;3.25;;;-4.00;99.90;;;;;;5001758;28;20029;-61
2021/03/09 02:59:43;;;;;;;6.07;2.88;;;-4.10;99.90;;;;;;4999831;28;20034;-61
2021/03/09 03:02:11;;;;;;;;;;;-4.10;99.90;;;;;;5001951;28;20072;-61
2021/03/09 03:04:40;;;;;;;6.93;3.05;;;-4.10;99.90;;;;;;5000112;28;20006;-61
2021/03/09 03:07:09;;;;;;;8.40;3.13;;;-4.10;99.90;;;;;;5001234;28;20508;-61
2021/03/09 03:09:36;;;;;;;8.18;2.50;;;-4.20;99.90;;;;;;4999669;28;20026;-61
2021/03/09 03:12:02;;;;;;;8.90;3.17;;;-4.40;99.90;;;;;;5000627;28;20140;-61
2021/03/09 03:14:29;;;;;;;10.43;3.35;;;-4.40;99.90;;;;;;5000919;28;20493;-61
2021/03/09 03:16:56;;;;;;;6.78;2.90;;;-4.30;99.90;;;;;;4999875;28;20113;-61
2021/03/09 03:19:23;;;;;;;7.82;2.95;;;-4.30;99.90;;;;;;5000744;28;20056;-61
2021/03/09 03:21:50;;;;;;;8.60;3.47;;;-4.20;99.90;;;;;;4999073;28;20042;-61
2021/03/09 03:24:16;;;;;;;7.47;3.13;;;-4.20;99.90;;;;;;5001709;28;20217;-61
2021/03/09 03:26:45;;;;;;;6.80;3.55;;;-4.20;99.90;;;;;;5001552;28;20811;-61
2021/03/09 03:29:13;;;;;;;11.70;3.40;;;-4.20;99.90;;;;;;5000668;28;20029;-63
2021/03/09 03:31:39;;;;;;;7.97;3.20;;;-4.20;99.90;;;;;;5000109;28;20026;-61
2021/03/09 03:34:05;;;;;;;7.20;3.45;;;-4.20;99.90;;;;;;5000602;28;20034;-61
2021/03/09 03:36:32;;;;;;;8.00;3.25;;;-4.20;99.90;;;;;;5000335;28;20030;-61
2021/03/09 03:38:59;;;;;;;6.70;3.13;;;-4.10;99.90;;;;;;5001585;28;20030;-61
2021/03/09 03:41:25;;;;;;;6.32;2.95;;;-4.20;99.90;;;;;;4999738;28;20041;-61
2021/03/09 03:43:51;;;;;;;8.73;3.45;;;-4.20;99.90;;;;;;5000275;28;20022;-62
2021/03/09 03:46:16;;;;;;;7.53;3.33;;;-4.40;99.90;;;;;;5000398;28;20103;-61
2021/03/09 03:48:46;;;;;;;6.10;3.15;;;-4.40;99.90;;;;;;5000825;28;20048;-61
2021/03/09 03:51:15;;;;;;;6.28;3.50;;;-4.50;99.90;;;;;;5002266;28;20029;-62
2021/03/09 03:54:19;;;;;;;6.10;3.20;;;-4.40;99.90;;;;;;5001472;28;20029;-61
2021/03/09 03:56:47;;;;;;;9.45;4.35;;;-4.40;99.90;;;;;;5001763;28;20161;-62
2021/03/09 03:59:23;;;;;;;7.63;3.05;;;-4.40;99.90;;;;;;4999265;28;20405;-62
2021/03/09 04:01:51;;;;;;;12.43;3.55;;;-4.30;99.90;;;;;;4999675;28;20034;-62
2021/03/09 04:04:19;;;;;;;7.30;3.85;;;-4.40;99.90;;;;;;5000469;28;20033;-61
2021/03/09 04:06:50;;;;;;;9.98;4.20;;;-4.40;99.90;;;;;;4999952;28;20065;-62
2021/03/09 04:09:17;;;;;;;11.38;3.85;;;-4.40;99.90;;;;;;5000458;28;20071;-61
2021/03/09 04:11:45;;;;;;;12.48;5.90;;;-4.50;99.90;;;;;;5000867;28;20063;-61
2021/03/09 04:14:12;;;;;;;13.07;5.07;;;-4.50;99.90;;;;;;4999698;28;20492;-61
2021/03/09 04:16:41;;;;;;;14.18;4.90;;;-4.50;99.90;;;;;;4999055;28;20205;-61
2021/03/09 04:19:07;;;;;;;11.32;4.55;;;-4.60;99.90;;;;;;4999664;28;20100;-62
2021/03/09 04:21:35;;;;;;;10.90;5.30;;;-4.50;99.90;;;;;;5000994;28;20133;-61
2021/03/09 04:24:01;;;;;;;8.90;4.55;;;-4.50;99.90;;;;;;5001063;28;20105;-61
2021/03/09 04:26:28;;;;;;;9.35;4.20;;;-4.50;99.90;;;;;;5000299;28;20045;-62
2021/03/09 04:28:56;;;;;;;9.38;4.03;;;-4.50;99.90;;;;;;4998993;28;20083;-61
2021/03/09 04:31:22;;;;;;;8.00;4.00;;;-4.50;99.90;;;;;;4996927;28;20045;-61
2021/03/09 04:33:49;;;;;;;11.50;4.68;;;-4.50;99.90;;;;;;4997580;28;20040;-61
2021/03/09 04:36:17;;;;;;;13.15;5.10;;;-4.50;99.90;;;;;;4999431;28;20041;-61
2021/03/09 04:38:43;;;;;;;11.82;5.00;;;-4.50;99.90;;;;;;4998551;28;20771;-62
2021/03/09 04:41:10;;;;;;;11.90;5.03;;;-4.50;99.90;;;;;;5015100;28;20569;-61
2021/03/09 04:43:37;;;;;;;8.57;4.25;;;-4.60;99.90;;;;;;4999169;28;20285;-62
2021/03/09 04:46:04;;;;;;;11.27;5.47;;;-4.60;99.90;;;;;;4999538;28;20077;-61
2021/03/09 04:48:30;;;;;;;13.07;5.70;;;-4.60;99.90;;;;;;4993881;28;20161;-61
2021/03/09 04:51:05;;;;;;;10.57;4.80;;;-4.60;99.90;;;;;;4997595;28;20036;-61
2021/03/09 04:53:32;;;;;;;9.10;4.80;;;-4.60;99.90;;;;;;4998555;28;20033;-61
2021/03/09 04:55:59;;;;;;;16.88;5.40;;;-4.60;99.90;;;;;;4998184;28;20053;-61
2021/03/09 04:58:25;;;;;;;10.95;5.68;;;-4.70;99.90;;;;;;4993819;28;20033;-62
2021/03/09 05:00:52;;;;;;;13.13;5.43;;;-4.70;99.90;;;;;;4998519;28;20236;-62
2021/03/09 05:03:18;;;;;;;16.42;4.90;;;-4.70;99.90;;;;;;4998236;28;20062;-62
2021/03/09 05:05:44;;;;;;;13.05;5.60;;;-4.70;99.90;;;;;;4999783;28;20033;-62
2021/03/09 05:08:10;;;;;;;10.23;4.55;;;-4.80;99.90;;;;;;4998013;28;20037;-62
2021/03/09 05:10:36;;;;;;;17.95;5.97;;;-4.80;99.90;;;;;;4997316;28;20037;-62
2021/03/09 05:13:02;;;;;;;8.45;4.18;;;-4.80;99.90;;;;;;4996863;28;20036;-62
2021/03/09 05:15:28;;;;;;;12.20;4.97;;;-4.90;99.90;;;;;;4998485;28;20034;-62
2021/03/09 05:17:53;;;;;;;13.30;5.75;;;-4.90;99.90;;;;;;4997791;28;20506;-62
2021/03/09 05:20:19;;;;;;;10.07;5.72;;;-4.90;99.90;;;;;;4997480;28;20180;-62
2021/03/09 05:22:45;;;;;;;9.93;5.05;;;-4.90;99.90;;;;;;4998627;28;20366;-62
2021/03/09 05:25:14;;;;;;;14.02;7.43;;;-4.90;99.90;;;;;;4997162;28;20541;-62
2021/03/09 05:27:41;;;;;;;24.08;8.57;;;-4.90;99.90;;;;;;4999012;28;20073;-62
2021/03/09 05:30:08;;;;;;;16.48;8.07;;;-4.90;99.90;;;;;;4997195;28;20517;-62
2021/03/09 05:32:34;;;;;;;15.63;7.75;;;-4.90;99.90;;;;;;4996905;28;20037;-62
2021/03/09 05:35:00;;;;;;;19.25;8.48;;;-4.90;99.90;;;;;;4994374;28;20095;-62
2021/03/09 05:37:26;;;;;;;13.85;6.60;;;-5.00;99.90;;;;;;4979102;28;20384;-62
2021/03/09 05:39:52;;;;;;;14.00;6.60;;;-5.00;99.90;;;;;;4993795;28;20033;-62
2021/03/09 05:42:18;;;;;;;18.15;7.15;;;-5.00;99.90;;;;;;4995135;28;20040;-62
2021/03/09 05:44:44;;;;;;;11.18;6.38;;;-5.10;99.90;;;;;;4997593;28;20104;-62
2021/03/09 05:47:10;;;;;;;16.25;6.63;;;-5.10;99.90;;;;;;4995258;28;20494;-62
2021/03/09 05:49:36;;;;;;;11.75;5.65;;;-5.00;99.90;;;;;;4997515;28;20469;-62
2021/03/09 05:52:02;;;;;;;18.33;5.93;;;-5.00;99.90;;;;;;4999097;28;20079;-62
2021/03/09 05:54:28;;;;;;;12.57;5.63;;;-5.00;99.90;;;;;;4993042;28;20064;-62
2021/03/09 05:56:54;;;;;;;10.95;5.75;;;-5.00;99.90;;;;;;4998376;28;20165;-62
2021/03/09 05:59:20;;;;;;;9.43;4.97;;;-5.00;99.90;;;;;;4998839;28;20029;-62
2021/03/09 06:01:47;;;;;;;11.68;5.32;;;-5.00;99.90;;;;;;4999414;28;20579;-63
2021/03/09 06:04:13;;;;;;;9.70;5.28;;;-5.00;99.90;;;;;;4999660;28;20577;-62
2021/03/09 06:06:38;;;;;;;12.18;5.43;;;-5.00;99.90;;;;;;5000453;28;20504;-62
2021/03/09 06:09:33;;;;;;;11.00;4.78;;;-5.10;99.90;;;;;;5000031;28;20057;-62
2021/03/09 06:12:13;;;;;;;10.88;5.13;;;-5.10;99.90;;;;;;5002877;28;20033;-62
2021/03/09 06:14:44;;;;;;;15.95;5.43;;;-5.00;99.90;;;;;;4998795;28;20037;-62
2021/03/09 06:17:22;;;;;;;14.13;4.35;;;-5.00;99.90;;;;;;5000735;28;20029;-62
2021/03/09 06:19:48;;;;;;;9.45;5.43;;;-4.80;99.90;;;;;;4998094;28;20081;-62
2021/03/09 06:22:16;;;;;;;16.48;6.32;;;-4.60;99.90;;;;;;5000080;28;20128;-62
2021/03/09 06:24:44;;;;;;;12.57;5.68;;;-4.40;99.90;;;;;;4999837;28;20025;-62
2021/03/09 06:27:27;;;;;;;10.10;4.80;;;-4.10;99.90;;;;;;4999673;28;20043;-62
2021/03/09 06:29:54;;;;;;;9.95;4.65;;;-3.90;99.90;;;;;;4999614;28;20029;-62
2021/03/09 06:32:20;;;;;;;13.10;5.82;;;-3.70;99.90;;;;;;4999424;28;20482;-62
2021/03/09 06:34:46;;;;;;;15.32;6.00;;;-3.60;99.90;;;;;;5000037;28;20026;-62
2021/03/09 06:37:17;;;;;;;15.13;7.70;;;-3.40;99.90;;;;;;5000048;28;20044;-62
2021/03/09 06:39:49;;;;;;;15.18;6.65;;;-3.40;99.90;;;;;;4999611;28;20088;-62
2021/03/09 06:42:36;;;;;;;15.63;6.60;;;-3.30;99.90;;;;;;4998145;28;20171;-62
2021/03/09 06:45:10;;;;;;;16.48;6.32;;;-3.20;99.90;;;;;;4999377;28;20022;-62
2021/03/09 06:47:46;;;;;;;13.18;6.95;;;-3.10;99.90;;;;;;4999247;28;20056;-62
2021/03/09 06:50:17;;;;;;;12.85;5.95;;;-3.00;99.90;;;;;;4998396;28;20026;-62
2021/03/09 06:52:44;;;;;;;13.10;6.43;;;-2.90;99.90;;;;;;5000096;28;20136;-62
2021/03/09 06:55:13;;;;;;;15.13;6.63;;;-2.70;99.90;;;;;;4998746;28;20053;-62
2021/03/09 06:57:40;;;;;;;14.80;6.40;;;-2.40;99.90;;;;;;4999722;28;20331;-62
2021/03/09 07:00:10;;;;;;;19.45;6.93;;;-2.20;99.90;;;;;;4999753;28;20033;-63
2021/03/09 07:02:37;;;;;;;12.45;6.32;;;-2.10;99.90;;;;;;4999227;28;20042;-63
2021/03/09 07:05:08;;;;;;;18.67;7.47;;;-1.90;99.90;;;;;;4999018;28;20038;-63
2021/03/09 07:07:42;;;;;;;17.08;6.97;;;-1.70;99.90;;;;;;4998328;28;20034;-63
2021/03/09 07:10:13;;;;;;;15.57;6.78;;;-1.40;99.90;;;;;;4998670;28;20057;-63
2021/03/09 07:12:40;;;;;;;12.30;7.20;;;-1.30;99.90;;;;;;4999400;28;20030;-63
2021/03/09 07:15:09;;;;;;;23.10;8.70;;;-1.00;99.90;;;;;;4999172;28;20026;-63
2021/03/09 07:17:37;;;;;;;17.65;6.63;;;-0.80;99.90;;;;;;4998895;28;20033;-63
2021/03/09 07:20:06;;;;;;;13.93;6.18;;;-0.60;99.90;;;;;;4999117;28;20025;-63
2021/03/09 07:22:34;;;;;;;15.77;6.60;;;-0.30;99.90;;;;;;4998628;28;20041;-63
2021/03/09 07:25:16;;;;;;;12.43;6.57;;;-0.30;99.90;;;;;;4998900;28;20057;-63
2021/03/09 07:27:42;;;;;;;14.95;7.45;;;-0.10;99.90;;;;;;4999225;28;20038;-63
2021/03/09 07:30:10;;;;;;;15.98;7.05;;;0.20;99.90;;;;;;4999352;28;20041;-63
2021/03/09 07:32:39;;;;;;;13.27;6.40;;;0.30;99.90;;;;;;4998720;28;20080;-63
2021/03/09 07:35:07;;;;;;;13.67;6.77;;;0.40;99.90;;;;;;4998746;28;20022;-63
2021/03/09 07:37:38;;;;;;;18.50;6.53;;;0.60;99.90;;;;;;4998386;28;20041;-63
2021/03/09 07:40:08;;;;;;;17.48;6.38;;;0.70;99.90;;;;;;4997405;28;20068;-64
2021/03/09 07:42:34;;;;;;;14.13;7.53;;;1.00;99.90;;;;;;4998521;28;20034;-63
2021/03/09 07:45:02;;;;;;;15.93;6.75;;;1.30;99.90;;;;;;4998354;28;20694;-63
2021/03/09 07:47:29;;;;;;;17.58;9.45;;;1.60;99.90;;;;;;4998574;28;20022;-63
2021/03/09 07:49:55;;;;;;;15.20;6.93;;;1.80;99.90;;;;;;4998788;28;20522;-64
2021/03/09 07:52:22;;;;;;;15.00;7.35;;;2.00;99.90;;;;;;4997990;28;21959;-64
2021/03/09 07:55:03;;;;;;;13.93;7.57;;;2.10;99.90;;;;;;4998016;28;20594;-64
2021/03/09 07:57:32;;;;;;;16.85;8.70;;;2.30;99.90;;;;;;4997855;28;20064;-64
2021/03/09 08:00:00;;;;;;;17.70;7.77;;;2.60;99.90;;;;;;4998511;28;20033;-64
2021/03/09 08:02:47;;;;;;;16.38;7.97;;;2.80;99.90;;;;;;4998300;28;20476;-64
2021/03/09 08:05:25;;;;;;;16.50;8.98;;;2.70;99.90;;;;;;4996834;28;20034;-64
2021/03/09 08:07:54;;;;;;;16.40;8.80;;;2.70;99.90;;;;;;4998479;28;20038;-64
2021/03/09 08:10:35;;;;;;;14.45;8.23;;;2.60;99.90;;;;;;4997896;28;20040;-64
2021/03/09 08:13:06;;;;;;;15.52;9.02;;;2.90;99.90;;;;;;4998329;28;20030;-64
2021/03/09 08:15:36;;;;;;;16.55;8.63;;;3.00;99.90;;;;;;4998146;28;20092;-64
2021/03/09 08:18:32;;;;;;;;;;;3.30;99.90;;;;;;4997722;28;20787;-64
2021/03/09 08:21:00;;;;;;;17.02;8.85;;;3.50;99.90;;;;;;4993705;28;19921;-64
2021/03/09 08:23:35;;;;;;;18.67;9.35;;;3.70;99.90;;;;;;4998244;28;20654;-64
2021/03/09 08:26:28;;;;;;;16.95;9.02;;;4.00;99.90;;;;;;4997549;28;20393;-63
2021/03/09 08:28:54;;;;;;;18.23;9.80;;;4.30;99.90;;;;;;4995824;28;20026;-64
2021/03/09 08:31:20;;;;;;;20.08;10.90;;;4.30;99.90;;;;;;4997730;28;20575;-64
2021/03/09 08:33:54;;;;;;;17.73;9.43;;;4.40;99.90;;;;;;4997700;28;20133;-64
2021/03/09 08:36:20;;;;;;;20.58;10.45;;;4.60;99.90;;;;;;4997667;28;20240;-64
2021/03/09 08:39:01;;;;;;;18.95;9.70;;;4.70;99.90;;;;;;4997833;28;20026;-64
2021/03/09 08:41:42;;;;;;;16.55;9.30;;;5.00;99.90;;;;;;4997677;28;20117;-64
2021/03/09 08:44:16;;;;;;;18.88;10.75;;;5.30;99.90;;;;;;4997437;28;20026;-63
2021/03/09 08:47:10;;;;;;;18.15;9.90;;;5.30;99.90;;;;;;4998466;28;20068;-65
2021/03/09 08:49:36;;;;;;;20.00;10.25;;;5.70;99.90;;;;;;4997477;28;20037;-64
2021/03/09 08:52:09;;;;;;;17.98;9.88;;;6.20;99.90;;;;;;4997163;28;20394;-64
2021/03/09 08:54:40;;;;;;;22.85;10.75;;;6.60;99.90;;;;;;4997676;28;20480;-64
2021/03/09 08:57:13;;;;;;;19.02;10.70;;;6.80;99.90;;;;;;4997593;28;20021;-64
2021/03/09 08:59:41;;;;;;;21.58;10.63;;;6.60;99.90;;;;;;4997128;28;20536;-65
2021/03/09 09:02:17;;;;;;;20.05;9.73;;;7.00;99.90;;;;;;4997868;28;20349;-64
2021/03/09 09:04:54;;;;;;;17.15;10.43;;;7.00;99.90;;;;;;4996709;28;20129;-65
2021/03/09 09:07:35;;;;;;;19.20;10.77;;;7.10;99.90;;;;;;4997855;28;20042;-65
2021/03/09 09:10:19;;;;;;;17.77;9.48;;;7.10;99.90;;;;;;4997644;28;20064;-64
2021/03/09 09:12:54;;;;;;;21.60;11.15;;;7.50;99.90;;;;;;4997339;28;20030;-64
2021/03/09 09:15:24;;;;;;;17.27;10.07;;;7.70;99.90;;;;;;4996827;28;20018;-65
2021/03/09 09:18:00;;;;;;;17.98;9.98;;;8.00;99.90;;;;;;4997744;28;20120;-64
2021/03/09 09:20:38;;;;;;;15.10;9.65;;;8.40;99.90;;;;;;4997257;28;20036;-64
2021/03/09 09:23:19;;;;;;;16.80;10.25;;;8.90;99.90;;;;;;4996049;28;20124;-64
2021/03/09 09:25:47;;;;;;;16.45;9.50;;;9.00;99.90;;;;;;4997213;28;20163;-65
2021/03/09 09:28:32;;;;;;;13.77;8.55;;;9.00;99.90;;;;;;4997234;28;20030;-64
2021/03/09 09:31:12;;;;;;;17.05;9.27;;;9.10;99.90;;;;;;5000484;28;20096;-65
2021/03/09 09:33:38;;;;;;;14.57;8.18;;;9.00;99.90;;;;;;5001026;28;20029;-64
2021/03/09 09:36:04;;;;;;;14.52;8.48;;;8.90;99.90;;;;;;5001653;28;20033;-65
2021/03/09 09:38:30;;;;;;;14.75;8.18;;;8.80;99.90;;;;;;4999984;28;20118;-65
2021/03/09 09:40:59;;;;;;;13.40;7.00;;;9.00;99.90;;;;;;5000723;28;20066;-66
2021/03/09 09:43:35;;;;;;;16.45;7.90;;;9.20;99.90;;;;;;5000893;28;20096;-65
2021/03/09 09:46:07;;;;;;;14.90;6.60;;;9.00;99.90;;;;;;5000683;28;20032;-65
2021/03/09 09:48:38;;;;;;;11.23;6.80;;;9.20;99.90;;;;;;5000689;28;20034;-65
2021/03/09 09:51:18;;;;;;;14.48;6.40;;;9.60;99.90;;;;;;5000215;28;20037;-65
2021/03/09 09:53:46;;;;;;;11.77;6.63;;;9.60;99.90;;;;;;5000438;28;20057;-65
2021/03/09 09:56:15;;;;;;;11.88;6.53;;;9.80;99.90;;;;;;4999599;28;20038;-65
2021/03/09 09:58:42;;;;;;;10.70;6.22;;;9.90;99.90;;;;;;5000785;28;20037;-65
2021/03/09 10:01:09;;;;;;;12.00;6.35;;;9.90;97.90;;;;;;5000297;28;20493;-66
2021/03/09 10:03:56;;;;;;;15.40;8.63;;;9.90;99.20;;;;;;5001158;28;20026;-65
2021/03/09 10:06:24;;;;;;;11.65;6.95;;;10.10;98.40;;;;;;4999966;28;20034;-65
2021/03/09 10:08:51;;;;;;;12.20;6.93;;;10.10;96.30;;;;;;5000376;28;20036;-65
2021/03/09 10:11:17;;;;;;;10.85;6.70;;;10.20;96.70;;;;;;5000502;28;20045;-65
2021/03/09 10:13:43;;;;;;;14.95;6.57;;;10.30;97.30;;;;;;4998495;28;20033;-65
2021/03/09 10:16:09;;;;;;;11.60;5.65;;;10.60;97.90;;;;;;5000244;28;20029;-65
2021/03/09 10:18:36;;;;;;;13.25;6.30;;;11.00;94.70;;;;;;5000162;28;20054;-65
2021/03/09 10:21:14;;;;;;;12.07;5.53;;;10.40;93.70;;;;;;4999423;28;20347;-65
2021/03/09 10:23:56;;;;;;;10.02;5.20;;;10.60;95.10;;;;;;5000071;28;20045;-65
2021/03/09 10:26:30;;;;;;;12.90;5.20;;;10.60;97.30;;;;;;4999925;28;20157;-65
2021/03/09 10:29:13;;;;;;;10.18;4.97;;;10.80;90.20;;;;;;4999447;28;20037;-65
2021/03/09 10:31:54;;;;;;;13.13;5.47;;;10.50;90.30;;;;;;4999951;28;20034;-65
2021/03/09 10:34:48;;;;;;;9.68;5.15;;;10.10;96.30;;;;;;4999394;28;20552;-65
2021/03/09 10:37:16;;;;;;;7.60;4.13;;;10.80;91.60;;;;;;4999769;28;20061;-65
2021/03/09 10:40:02;;;;;;;13.50;5.43;;;10.80;88.20;;;;;;4999850;28;20424;-65
2021/03/09 10:42:46;;;;;;;10.70;5.40;;;10.90;92.20;;;;;;4999385;28;20100;-65
2021/03/09 10:45:29;;;;;;;9.05;4.45;;;11.10;90.60;;;;;;5000003;28;20018;-65
2021/03/09 10:47:56;;;;;;;7.75;4.72;;;11.40;92.10;;;;;;4998134;28;20021;-66
2021/03/09 10:50:24;;;;;;;8.10;4.68;;;11.70;92.10;;;;;;4999853;28;20037;-65
2021/03/09 10:52:51;;;;;;;9.40;5.13;;;11.90;92.70;;;;;;4999173;28;20025;-66
2021/03/09 10:55:17;;;;;;;11.85;5.28;;;11.90;85.30;;;;;;4997372;28;20056;-65
2021/03/09 10:57:43;;;;;;;9.88;4.18;;;12.20;82.10;;;;;;5000196;28;20443;-65
2021/03/09 11:00:12;;;;;;;6.95;4.45;;;12.20;89.10;;;;;;4998967;28;20037;-65
2021/03/09 11:02:39;;;;;;;7.25;4.25;;;12.30;77.90;;;;;;4999406;28;20033;-65
2021/03/09 11:05:05;;;;;;;6.38;3.65;;;11.90;76.70;;;;;;4994804;28;20026;-64
2021/03/09 11:07:31;;;;;;;7.85;3.70;;;11.70;80.70;;;;;;4997324;28;20540;-65
2021/03/09 11:09:57;;;;;;;8.15;3.83;;;11.40;85.00;;;;;;4999292;28;20026;-65
2021/03/09 11:12:23;;;;;;;8.07;3.47;;;11.80;90.00;;;;;;4999672;28;20038;-66
2021/03/09 11:14:49;;;;;;;6.85;3.67;;;12.20;88.40;;;;;;4998477;28;20059;-66
2021/03/09 11:17:15;;;;;;;5.40;2.67;;;12.40;84.20;;;;;;4999352;28;20224;-65
2021/03/09 11:19:41;;;;;;;4.60;2.70;;;12.60;76.10;;;;;;4999819;28;20053;-64
2021/03/09 11:22:07;;;;;;;6.88;3.47;;;12.50;70.60;;;;;;4998290;28;20037;-64
2021/03/09 11:24:32;;;;;;;7.40;3.97;;;12.10;72.10;;;;;;4998997;28;20300;-64
2021/03/09 11:27:01;;;;;;;6.93;3.47;;;11.60;73.80;;;;;;4998657;28;20071;-63
2021/03/09 11:29:28;;;;;;;8.45;4.07;;;11.30;78.90;;;;;;4998815;28;20145;-64
2021/03/09 11:31:54;;;;;;;10.13;3.90;;;11.50;80.80;;;;;;4998771;28;20447;-64
2021/03/09 11:34:20;;;;;;;5.00;3.25;;;11.50;75.20;;;;;;4998343;28;20085;-64
2021/03/09 11:36:46;;;;;;;9.38;3.08;;;11.50;76.90;;;;;;4998933;28;20520;-64
2021/03/09 11:39:12;;;;;;;6.93;3.38;;;11.70;71.00;;;;;;4998285;28;20064;-65
2021/03/09 11:41:38;;;;;;;7.22;3.20;;;11.90;78.70;;;;;;4998603;28;20054;-64
2021/03/09 11:44:04;;;;;;;7.47;3.65;;;12.20;70.50;;;;;;4998643;28;20026;-64
2021/03/09 11:46:30;;;;;;;5.28;3.33;;;12.40;77.90;;;;;;4998771;28;20030;-64
2021/03/09 11:48:55;;;;;;;4.63;2.40;;;12.60;66.90;;;;;;4998576;28;20036;-63
2021/03/09 11:51:21;;;;;;;6.00;2.60;;;12.30;67.20;;;;;;4998095;28;20168;-64
2021/03/09 11:53:47;;;;;;;6.43;3.22;;;11.90;63.80;;;;;;4998307;28;20034;-64
2021/03/09 11:56:13;;;;;;;6.18;3.03;;;11.70;66.00;;;;;;4997907;28;20663;-63
2021/03/09 11:58:38;;;;;;;5.22;2.80;;;11.20;67.80;;;;;;4998368;28;20034;-64
2021/03/09 12:01:04;;;;;;;5.30;2.95;;;11.50;71.60;;;;;;4998453;28;20509;-64
2021/03/09 12:03:30;;;;;;;3.78;2.58;;;11.70;64.70;;;;;;4997988;28;20030;-63
2021/03/09 12:05:56;;;;;;;5.32;2.75;;;11.80;68.30;;;;;;4998427;28;20064;-64
2021/03/09 12:08:22;;;;;;;6.90;2.85;;;12.40;66.20;;;;;;4998256;28;20108;-63
2021/03/09 12:10:47;;;;;;;5.07;2.65;;;12.60;69.60;;;;;;4998517;28;20061;-65
2021/03/09 12:13:13;;;;;;;7.18;2.83;;;12.30;66.20;;;;;;4997891;28;20133;-64
2021/03/09 12:15:39;;;;;;;5.20;2.63;;;12.10;64.80;;;;;;4997934;28;20482;-65
2021/03/09 12:18:05;;;;;;;5.18;2.78;;;12.10;67.50;;;;;;4997625;28;20077;-65
2021/03/09 12:20:31;;;;;;;7.22;2.63;;;12.40;64.60;;;;;;4995796;28;20119;-65
2021/03/09 12:22:57;;;;;;;4.88;2.70;;;12.90;64.80;;;;;;4998047;28;20065;-66
2021/03/09 12:25:23;;;;;;;6.80;3.88;;;13.20;64.40;;;;;;4997872;28;20121;-65
2021/03/09 12:27:49;;;;;;;5.65;3.05;;;13.30;61.20;;;;;;4997973;28;20034;-65
2021/03/09 12:30:16;;;;;;;7.18;4.20;;;13.00;62.60;;;;;;4996971;28;20533;-65
2021/03/09 12:32:42;;;;;;;6.18;3.40;;;12.90;60.30;;;;;;4998241;28;20053;-65
2021/03/09 12:35:09;;;;;;;7.47;3.10;;;12.70;64.00;;;;;;4997631;28;20374;-65
2021/03/09 12:37:36;;;;;;;8.05;2.95;;;12.90;61.10;;;;;;4997068;28;20034;-65
2021/03/09 12:40:02;;;;;;;5.20;2.50;;;13.10;58.20;;;;;;4997877;28;20057;-65
2021/03/09 12:42:28;;;;;;;4.88;2.47;;;12.60;56.80;;;;;;4997826;28;20040;-65
2021/03/09 12:44:54;;;;;;;4.43;2.72;;;12.10;57.00;;;;;;4997360;28;20022;-65
2021/03/09 12:47:21;;;;;;;5.03;3.08;;;11.90;58.70;;;;;;4995945;28;20048;-66
2021/03/09 12:49:47;;;;;;;6.60;2.50;;;11.50;59.70;;;;;;4997880;28;20379;-65
2021/03/09 12:52:13;;;;;;;6.35;3.42;;;12.00;62.70;;;;;;4997468;28;20025;-65
2021/03/09 12:54:39;;;;;;;8.00;3.45;;;12.40;60.40;;;;;;4995833;28;20018;-65